createdAt,value
2023-09-09T00:00:08.589Z,21.80
2023-09-09T00:02:35.352Z,21.80
2023-09-09T00:05:02.075Z,21.90
2023-09-09T00:07:28.805Z,21.90
2023-09-09T00:09:55.504Z,21.80
2023-09-09T00:12:22.478Z,21.80
2023-09-09T00:14:49.268Z,21.80
2023-09-09T00:17:15.996Z,21.90
2023-09-09T00:19:42.751Z,21.80
2023-09-09T00:22:09.379Z,21.80
2023-09-09T00:24:36.177Z,21.80
2023-09-09T00:27:02.911Z,21.80
2023-09-09T00:29:30.807Z,21.80
2023-09-09T00:31:57.511Z,21.80
2023-09-09T00:34:24.249Z,21.80
2023-09-09T00:36:51.095Z,21.90
2023-09-09T00:39:17.778Z,21.80
2023-09-09T00:41:44.458Z,21.80
2023-09-09T00:44:11.131Z,21.80
2023-09-09T00:46:38.090Z,21.80
2023-09-09T00:49:05.021Z,21.90
2023-09-09T00:51:32.691Z,21.80
2023-09-09T00:53:59.553Z,21.80
2023-09-09T00:56:26.444Z,21.80
2023-09-09T00:58:53.243Z,21.80
2023-09-09T01:01:20.030Z,21.80
2023-09-09T01:03:47.315Z,21.80
2023-09-09T01:06:14.097Z,21.80
2023-09-09T01:08:40.760Z,21.80
2023-09-09T01:11:07.374Z,21.80
2023-09-09T01:13:36.376Z,21.80
2023-09-09T01:16:04.011Z,21.80
2023-09-09T01:18:32.630Z,21.80
2023-09-09T01:21:05.579Z,21.80
2023-09-09T01:23:32.590Z,21.80
2023-09-09T01:25:59.408Z,21.80
2023-09-09T01:28:26.157Z,21.80
2023-09-09T01:30:53.966Z,21.80
2023-09-09T01:33:20.648Z,21.80
2023-09-09T01:35:47.709Z,21.80
2023-09-09T01:38:14.670Z,21.80
2023-09-09T01:40:41.380Z,21.80
2023-09-09T01:43:08.550Z,21.80
2023-09-09T01:45:35.266Z,21.80
2023-09-09T01:48:02.063Z,21.80
2023-09-09T01:50:28.990Z,21.80
2023-09-09T01:52:56.491Z,21.80
2023-09-09T01:55:23.114Z,21.80
2023-09-09T01:57:49.747Z,21.80
2023-09-09T02:00:16.620Z,21.80
2023-09-09T02:02:43.366Z,21.80
2023-09-09T02:05:10.847Z,21.80
2023-09-09T02:07:37.693Z,21.80
2023-09-09T02:10:04.756Z,21.80
2023-09-09T02:12:31.424Z,21.80
2023-09-09T02:14:58.125Z,21.80
2023-09-09T02:17:24.878Z,21.80
2023-09-09T02:19:58.137Z,21.80
2023-09-09T02:22:25.060Z,21.80
2023-09-09T02:24:56.760Z,21.80
2023-09-09T02:27:24.238Z,21.80
2023-09-09T02:29:51.133Z,21.80
2023-09-09T02:32:18.671Z,21.80
2023-09-09T02:34:45.688Z,21.80
2023-09-09T02:37:18.228Z,21.80
2023-09-09T02:39:49.772Z,21.80
2023-09-09T02:42:18.375Z,21.80
2023-09-09T02:44:45.629Z,21.80
2023-09-09T02:47:13.727Z,21.80
2023-09-09T02:49:41.639Z,21.80
2023-09-09T02:52:08.898Z,21.80
2023-09-09T02:54:36.150Z,21.80
2023-09-09T02:57:04.926Z,21.80
2023-09-09T02:59:34.237Z,21.80
2023-09-09T03:02:01.864Z,21.80
2023-09-09T03:04:28.729Z,21.80
2023-09-09T03:06:55.489Z,21.80
2023-09-09T03:09:23.157Z,21.80
2023-09-09T03:11:49.860Z,21.80
2023-09-09T03:14:16.536Z,21.80
2023-09-09T03:16:43.347Z,21.80
2023-09-09T03:19:10.248Z,21.80
2023-09-09T03:21:36.878Z,21.80
2023-09-09T03:24:03.691Z,21.80
2023-09-09T03:26:33.307Z,21.80
2023-09-09T03:29:00.862Z,21.80
2023-09-09T03:31:27.847Z,21.80
2023-09-09T03:33:54.723Z,21.80
2023-09-09T03:36:21.491Z,21.80
2023-09-09T03:38:48.149Z,21.80
2023-09-09T03:41:14.796Z,21.90
2023-09-09T03:43:41.925Z,21.80
2023-09-09T03:46:09.463Z,21.80
2023-09-09T03:48:36.267Z,21.80
2023-09-09T03:51:03.573Z,21.80
2023-09-09T03:53:30.729Z,21.80
2023-09-09T03:55:59.504Z,21.80
2023-09-09T03:58:26.225Z,21.80
2023-09-09T04:01:10.444Z,21.80
2023-09-09T04:03:39.203Z,21.80
2023-09-09T04:06:08.112Z,21.80
2023-09-09T04:08:36.738Z,21.80
2023-09-09T04:11:04.536Z,21.80
2023-09-09T04:13:31.743Z,21.80
2023-09-09T04:15:59.342Z,21.80
2023-09-09T04:18:42.263Z,21.80
2023-09-09T04:21:11.405Z,21.80
2023-09-09T04:23:38.517Z,21.80
2023-09-09T04:26:05.409Z,21.80
2023-09-09T04:28:32.005Z,21.80
2023-09-09T04:30:58.681Z,21.80
2023-09-09T04:33:25.388Z,21.80
2023-09-09T04:35:52.065Z,21.80
2023-09-09T04:38:18.759Z,21.80
2023-09-09T04:40:45.403Z,21.80
2023-09-09T04:43:12.060Z,21.80
2023-09-09T04:45:38.850Z,21.80
2023-09-09T04:48:06.340Z,21.80
2023-09-09T04:50:33.276Z,21.80
2023-09-09T04:52:59.928Z,21.80
2023-09-09T04:55:26.585Z,21.80
2023-09-09T04:57:53.244Z,21.70
2023-09-09T05:00:19.943Z,21.80
2023-09-09T05:02:46.604Z,21.80
2023-09-09T05:05:13.429Z,21.80
2023-09-09T05:07:40.191Z,21.80
2023-09-09T05:10:07.361Z,21.80
2023-09-09T05:12:34.831Z,21.80
2023-09-09T05:15:01.549Z,21.80
2023-09-09T05:17:28.568Z,21.70
2023-09-09T05:19:55.549Z,21.70
2023-09-09T05:22:22.279Z,21.70
2023-09-09T05:24:48.952Z,21.70
2023-09-09T05:27:15.736Z,21.70
2023-09-09T05:29:44.172Z,21.70
2023-09-09T05:32:10.971Z,21.70
2023-09-09T05:34:37.865Z,21.70
2023-09-09T05:37:04.797Z,21.70
2023-09-09T05:39:31.436Z,21.70
2023-09-09T05:41:58.111Z,21.70
2023-09-09T05:44:24.793Z,21.70
2023-09-09T05:46:51.590Z,21.70
2023-09-09T05:49:32.001Z,21.70
2023-09-09T05:52:03.450Z,21.70
2023-09-09T05:54:30.059Z,21.70
2023-09-09T05:56:57.545Z,21.70
2023-09-09T05:59:24.250Z,21.70
2023-09-09T06:01:50.930Z,21.70
2023-09-09T06:04:17.833Z,21.70
2023-09-09T06:06:47.977Z,21.70
2023-09-09T06:09:14.704Z,21.70
2023-09-09T06:11:41.421Z,21.70
2023-09-09T06:14:08.279Z,21.70
2023-09-09T06:16:34.976Z,21.70
2023-09-09T06:19:01.807Z,21.70
2023-09-09T06:21:28.551Z,21.70
2023-09-09T06:23:55.928Z,21.70
2023-09-09T06:26:22.584Z,21.70
2023-09-09T06:28:49.263Z,21.70
2023-09-09T06:31:16.128Z,21.70
2023-09-09T06:33:44.935Z,21.70
2023-09-09T06:36:12.340Z,21.70
2023-09-09T06:38:39.200Z,21.70
2023-09-09T06:41:05.983Z,21.70
2023-09-09T06:43:32.683Z,21.70
2023-09-09T06:46:01.182Z,21.70
2023-09-09T06:48:28.003Z,21.70
2023-09-09T06:50:54.672Z,21.70
2023-09-09T06:53:21.365Z,21.70
2023-09-09T06:55:48.799Z,21.70
2023-09-09T06:58:15.690Z,21.70
2023-09-09T07:00:43.574Z,21.70
2023-09-09T07:03:10.386Z,21.70
2023-09-09T07:05:37.195Z,21.80
2023-09-09T07:08:04.250Z,21.70
2023-09-09T07:10:31.682Z,21.70
2023-09-09T07:12:58.587Z,21.70
2023-09-09T07:15:25.349Z,21.70
2023-09-09T07:17:52.090Z,21.70
2023-09-09T07:20:18.755Z,21.70
2023-09-09T07:22:45.399Z,21.70
2023-09-09T07:25:12.123Z,21.70
2023-09-09T07:27:38.867Z,21.70
2023-09-09T07:30:06.935Z,21.70
2023-09-09T07:32:34.229Z,21.70
2023-09-09T07:35:03.417Z,21.70
2023-09-09T07:37:30.448Z,21.70
2023-09-09T07:40:01.440Z,21.70
2023-09-09T07:42:28.765Z,21.60
2023-09-09T07:44:55.472Z,21.70
2023-09-09T07:47:22.502Z,21.70
2023-09-09T07:49:50.122Z,21.60
2023-09-09T07:52:16.808Z,21.60
2023-09-09T07:54:43.547Z,21.60
2023-09-09T07:57:10.161Z,21.70
2023-09-09T07:59:40.040Z,21.70
2023-09-09T08:02:06.920Z,21.70
2023-09-09T08:04:33.832Z,21.60
2023-09-09T08:07:00.961Z,21.60
2023-09-09T08:09:27.714Z,21.60
2023-09-09T08:11:54.460Z,21.60
2023-09-09T08:14:21.231Z,21.60
2023-09-09T08:16:48.032Z,21.60
2023-09-09T08:19:15.033Z,21.60
2023-09-09T08:21:41.757Z,21.60
2023-09-09T08:24:08.638Z,21.60
2023-09-09T08:26:35.448Z,21.60
2023-09-09T08:29:02.214Z,21.60
2023-09-09T08:31:28.990Z,21.60
2023-09-09T08:33:55.752Z,21.60
2023-09-09T08:36:22.501Z,21.60
2023-09-09T08:38:49.291Z,21.60
2023-09-09T08:41:25.008Z,21.60
2023-09-09T08:44:06.211Z,21.60
2023-09-09T08:46:33.097Z,21.60
2023-09-09T08:49:03.267Z,21.60
2023-09-09T08:51:39.045Z,21.60
2023-09-09T08:54:08.446Z,21.60
2023-09-09T08:56:35.499Z,21.60
2023-09-09T08:59:02.367Z,21.60
2023-09-09T09:01:29.531Z,21.60
2023-09-09T09:03:58.431Z,21.60
2023-09-09T09:06:26.568Z,21.60
2023-09-09T09:08:53.283Z,21.60
2023-09-09T09:11:21.879Z,21.60
2023-09-09T09:13:48.677Z,21.60
2023-09-09T09:16:15.600Z,21.60
2023-09-09T09:18:43.433Z,21.60
2023-09-09T09:21:11.568Z,21.60
2023-09-09T09:23:45.743Z,21.60
2023-09-09T09:26:27.341Z,21.60
2023-09-09T09:28:54.168Z,21.60
2023-09-09T09:31:25.281Z,21.60
2023-09-09T09:33:53.115Z,21.60
2023-09-09T09:36:23.622Z,21.60
2023-09-09T09:38:54.304Z,21.60
2023-09-09T09:41:22.392Z,21.60
2023-09-09T09:43:50.528Z,21.60
2023-09-09T09:46:20.417Z,21.60
2023-09-09T09:48:47.593Z,21.60
2023-09-09T09:51:14.775Z,21.60
2023-09-09T09:53:50.262Z,21.60
2023-09-09T09:56:17.444Z,21.60
2023-09-09T09:58:45.472Z,21.60
2023-09-09T10:01:12.511Z,21.60
2023-09-09T10:03:47.576Z,21.60
2023-09-09T10:06:18.725Z,21.60
2023-09-09T10:09:09.626Z,21.60
2023-09-09T10:12:07.388Z,21.60
2023-09-09T10:14:36.894Z,21.60
2023-09-09T10:17:10.054Z,21.60
2023-09-09T10:19:40.095Z,21.60
2023-09-09T10:22:07.531Z,21.60
2023-09-09T10:24:39.633Z,21.60
2023-09-09T10:27:08.147Z,21.60
2023-09-09T10:29:38.242Z,21.60
2023-09-09T10:32:06.227Z,21.60
2023-09-09T10:34:39.273Z,21.60
2023-09-09T10:37:08.918Z,21.60
2023-09-09T10:39:36.664Z,21.60
2023-09-09T10:42:05.746Z,21.60
2023-09-09T10:44:32.501Z,21.60
2023-09-09T10:46:59.385Z,21.60
2023-09-09T10:49:28.203Z,21.60
2023-09-09T10:51:55.172Z,21.60
2023-09-09T10:54:27.394Z,21.60
2023-09-09T10:57:01.153Z,21.60
2023-09-09T10:59:32.792Z,21.60
2023-09-09T11:02:14.753Z,21.60
2023-09-09T11:04:42.748Z,21.60
2023-09-09T11:07:14.726Z,21.60
2023-09-09T11:09:51.671Z,21.60
2023-09-09T11:12:18.684Z,21.60
2023-09-09T11:14:47.478Z,21.60
2023-09-09T11:17:14.864Z,21.60
2023-09-09T11:19:43.596Z,21.60
2023-09-09T11:22:11.728Z,21.60
2023-09-09T11:24:39.165Z,21.70
2023-09-09T11:27:07.129Z,21.60
2023-09-09T11:29:37.410Z,21.60
2023-09-09T11:32:09.344Z,21.70
2023-09-09T11:34:36.107Z,21.60
2023-09-09T11:37:04.303Z,21.70
2023-09-09T11:39:31.126Z,21.70
2023-09-09T11:41:57.841Z,21.70
2023-09-09T11:44:24.588Z,21.70
2023-09-09T11:46:51.649Z,21.70
2023-09-09T11:49:19.161Z,21.70
2023-09-09T11:51:46.600Z,21.70
2023-09-09T11:54:19.954Z,21.70
2023-09-09T11:56:46.821Z,21.70
2023-09-09T11:59:13.473Z,21.70
2023-09-09T12:01:48.173Z,21.70
2023-09-09T12:04:16.105Z,21.70
2023-09-09T12:06:48.178Z,21.70
2023-09-09T12:09:15.731Z,21.70
2023-09-09T12:11:43.764Z,21.70
2023-09-09T12:14:13.102Z,21.70
2023-09-09T12:16:41.644Z,21.70
2023-09-09T12:19:13.733Z,21.70
2023-09-09T12:21:47.524Z,21.70
2023-09-09T12:24:14.562Z,21.70
2023-09-09T12:26:54.345Z,21.80
2023-09-09T12:29:21.431Z,21.80
2023-09-09T12:31:55.004Z,21.80
2023-09-09T12:34:23.485Z,21.80
2023-09-09T12:36:52.009Z,21.80
2023-09-09T12:39:31.911Z,21.80
2023-09-09T12:42:05.969Z,21.80
2023-09-09T12:44:34.246Z,21.80
2023-09-09T12:47:05.236Z,21.80
2023-09-09T12:49:33.727Z,21.80
2023-09-09T12:52:00.474Z,21.90
2023-09-09T12:54:27.293Z,21.90
2023-09-09T12:56:54.068Z,21.90
2023-09-09T12:59:20.815Z,21.90
2023-09-09T13:01:49.698Z,21.90
2023-09-09T13:04:16.439Z,21.90
2023-09-09T13:06:43.242Z,21.90
2023-09-09T13:09:10.124Z,21.90
2023-09-09T13:11:36.873Z,22.00
2023-09-09T13:14:13.194Z,22.00
2023-09-09T13:16:47.064Z,22.00
2023-09-09T13:19:13.835Z,22.00
2023-09-09T13:21:40.507Z,22.00
2023-09-09T13:24:07.405Z,22.00
2023-09-09T13:26:34.350Z,22.00
2023-09-09T13:29:00.977Z,22.00
2023-09-09T13:31:27.677Z,22.00
2023-09-09T13:33:54.381Z,22.00
2023-09-09T13:36:21.119Z,22.00
2023-09-09T13:38:47.853Z,22.00
2023-09-09T13:41:14.713Z,22.10
2023-09-09T13:43:41.550Z,22.10
2023-09-09T13:46:08.558Z,22.10
2023-09-09T13:48:35.223Z,22.10
2023-09-09T13:51:01.901Z,22.10
2023-09-09T13:53:28.520Z,22.10
2023-09-09T13:55:57.244Z,22.10
2023-09-09T13:58:23.894Z,22.10
2023-09-09T14:00:52.105Z,22.10
2023-09-09T14:03:18.938Z,22.10
2023-09-09T14:05:45.650Z,22.10
2023-09-09T14:08:12.314Z,22.10
2023-09-09T14:10:39.139Z,22.10
2023-09-09T14:13:05.821Z,22.10
2023-09-09T14:15:32.840Z,22.20
2023-09-09T14:17:59.550Z,22.10
2023-09-09T14:20:27.100Z,22.20
2023-09-09T14:22:53.751Z,22.20
2023-09-09T14:25:20.470Z,22.20
2023-09-09T14:27:47.169Z,22.20
2023-09-09T14:30:14.004Z,22.20
2023-09-09T14:32:40.772Z,22.20
2023-09-09T14:35:07.920Z,22.20
2023-09-09T14:37:34.737Z,22.20
2023-09-09T14:40:01.404Z,22.20
2023-09-09T14:42:28.154Z,22.20
2023-09-09T14:44:54.832Z,22.20
2023-09-09T14:47:21.452Z,22.20
2023-09-09T14:49:48.105Z,22.20
2023-09-09T14:52:14.938Z,22.20
2023-09-09T14:54:41.674Z,22.20
2023-09-09T14:57:08.528Z,22.20
2023-09-09T14:59:35.549Z,22.20
2023-09-09T15:02:02.421Z,22.20
2023-09-09T15:04:29.865Z,22.20
2023-09-09T15:06:56.562Z,22.30
2023-09-09T15:09:23.396Z,22.20
2023-09-09T15:11:50.118Z,22.30
2023-09-09T15:14:16.879Z,22.30
2023-09-09T15:16:51.558Z,22.30
2023-09-09T15:19:21.097Z,22.30
2023-09-09T15:21:47.788Z,22.30
2023-09-09T15:24:14.541Z,22.20
2023-09-09T15:26:41.510Z,22.30
2023-09-09T15:29:08.222Z,22.30
2023-09-09T15:31:35.799Z,22.30
2023-09-09T15:34:03.694Z,22.30
2023-09-09T15:36:30.429Z,22.30
2023-09-09T15:38:57.350Z,22.30
2023-09-09T15:41:24.383Z,22.30
2023-09-09T15:43:52.046Z,22.30
2023-09-09T15:46:19.326Z,22.20
2023-09-09T15:48:46.112Z,22.20
2023-09-09T15:51:12.839Z,22.20
2023-09-09T15:53:39.565Z,22.20
2023-09-09T15:56:12.516Z,22.20
2023-09-09T15:58:40.252Z,22.20
2023-09-09T16:01:07.570Z,22.20
2023-09-09T16:03:36.643Z,22.20
2023-09-09T16:06:08.926Z,22.20
2023-09-09T16:08:39.766Z,22.20
2023-09-09T16:11:06.900Z,22.10
2023-09-09T16:13:34.356Z,22.10
2023-09-09T16:16:02.091Z,22.10
2023-09-09T16:18:28.809Z,22.10
2023-09-09T16:20:55.479Z,22.10
2023-09-09T16:23:22.105Z,22.10
2023-09-09T16:25:48.801Z,22.10
2023-09-09T16:28:15.883Z,22.10
2023-09-09T16:30:42.731Z,22.10
2023-09-09T16:33:09.441Z,22.10
2023-09-09T16:35:36.776Z,22.10
2023-09-09T16:38:03.856Z,22.10
2023-09-09T16:40:30.610Z,22.10
2023-09-09T16:42:57.323Z,22.10
2023-09-09T16:45:24.065Z,22.10
2023-09-09T16:47:51.754Z,22.10
2023-09-09T16:50:18.557Z,22.10
2023-09-09T16:52:45.396Z,22.10
2023-09-09T16:55:12.118Z,22.10
2023-09-09T16:57:39.600Z,22.10
2023-09-09T17:00:11.468Z,22.10
2023-09-09T17:02:38.458Z,22.10
2023-09-09T17:05:06.177Z,22.10
2023-09-09T17:07:32.932Z,22.10
2023-09-09T17:09:59.604Z,22.10
2023-09-09T17:12:26.232Z,22.10
2023-09-09T17:14:52.877Z,22.10
2023-09-09T17:17:19.589Z,22.10
2023-09-09T17:19:46.379Z,22.10
2023-09-09T17:22:13.171Z,22.10
2023-09-09T17:24:39.869Z,22.10
2023-09-09T17:27:07.369Z,22.10
2023-09-09T17:29:34.021Z,22.00
2023-09-09T17:32:03.044Z,22.10
2023-09-09T17:34:38.756Z,22.10
2023-09-09T17:37:05.569Z,22.10
2023-09-09T17:39:32.252Z,22.10
2023-09-09T17:41:58.929Z,22.00
2023-09-09T17:44:25.608Z,22.00
2023-09-09T17:46:52.403Z,22.00
2023-09-09T17:49:26.416Z,22.10
2023-09-09T17:51:54.257Z,22.00
2023-09-09T17:54:23.290Z,22.00
2023-09-09T17:56:52.983Z,22.00
2023-09-09T17:59:21.189Z,22.00
2023-09-09T18:01:49.249Z,22.00
2023-09-09T18:04:16.316Z,22.10
2023-09-09T18:06:43.264Z,22.10
2023-09-09T18:09:09.918Z,22.10
2023-09-09T18:11:36.699Z,22.00
2023-09-09T18:14:03.399Z,22.00
2023-09-09T18:16:31.953Z,22.10
2023-09-09T18:18:59.112Z,22.00
2023-09-09T18:21:25.801Z,22.00
2023-09-09T18:23:53.463Z,22.00
2023-09-09T18:26:20.426Z,22.00
2023-09-09T18:28:47.948Z,22.00
2023-09-09T18:31:14.993Z,22.00
2023-09-09T18:33:41.813Z,22.10
2023-09-09T18:36:08.768Z,22.00
2023-09-09T18:38:35.502Z,22.00
2023-09-09T18:41:04.035Z,22.10
2023-09-09T18:43:31.250Z,22.00
2023-09-09T18:45:59.519Z,22.00
2023-09-09T18:48:26.623Z,22.00
2023-09-09T18:50:53.352Z,22.00
2023-09-09T18:53:20.838Z,22.00
2023-09-09T18:55:48.027Z,22.00
2023-09-09T18:58:14.829Z,22.00
2023-09-09T19:00:41.711Z,22.00
2023-09-09T19:03:08.912Z,22.00
2023-09-09T19:05:36.225Z,22.10
2023-09-09T19:08:03.792Z,22.10
2023-09-09T19:10:31.341Z,22.00
2023-09-09T19:12:58.106Z,22.00
2023-09-09T19:15:24.966Z,22.00
2023-09-09T19:17:52.074Z,22.00
2023-09-09T19:20:19.075Z,22.00
2023-09-09T19:22:48.051Z,22.00
2023-09-09T19:25:14.872Z,22.00
2023-09-09T19:27:41.843Z,22.00
2023-09-09T19:30:09.491Z,22.10
2023-09-09T19:32:36.519Z,22.00
2023-09-09T19:35:03.715Z,22.00
2023-09-09T19:37:30.414Z,22.00
2023-09-09T19:39:59.066Z,22.00
2023-09-09T19:42:26.815Z,22.10
2023-09-09T19:44:57.773Z,22.10
2023-09-09T19:47:28.329Z,22.10
2023-09-09T19:49:55.269Z,22.00
2023-09-09T19:52:22.256Z,22.00
2023-09-09T19:54:49.148Z,22.10
2023-09-09T19:57:16.101Z,22.00
2023-09-09T19:59:42.914Z,22.00
2023-09-09T20:02:09.789Z,22.00
2023-09-09T20:04:36.600Z,22.00
2023-09-09T20:07:03.660Z,22.10
2023-09-09T20:09:30.378Z,22.10
2023-09-09T20:11:57.166Z,22.10
2023-09-09T20:14:24.018Z,22.10
2023-09-09T20:16:50.730Z,22.10
2023-09-09T20:19:17.434Z,22.10
2023-09-09T20:21:44.158Z,22.10
2023-09-09T20:24:10.845Z,22.10
2023-09-09T20:26:37.516Z,22.10
2023-09-09T20:29:04.295Z,22.10
2023-09-09T20:31:31.049Z,22.10
2023-09-09T20:33:57.777Z,22.10
2023-09-09T20:36:24.727Z,22.10
2023-09-09T20:38:51.557Z,22.00
2023-09-09T20:41:18.244Z,22.10
2023-09-09T20:43:45.197Z,22.10
2023-09-09T20:46:12.949Z,22.10
2023-09-09T20:48:40.227Z,22.10
2023-09-09T20:51:07.128Z,22.10
2023-09-09T20:53:34.793Z,22.10
2023-09-09T20:56:11.466Z,22.10
2023-09-09T20:58:41.054Z,22.10
2023-09-09T21:01:08.634Z,22.10
2023-09-09T21:03:35.554Z,22.10
2023-09-09T21:06:02.246Z,22.10
2023-09-09T21:08:30.073Z,22.10
2023-09-09T21:10:56.882Z,22.10
2023-09-09T21:13:23.656Z,22.10
2023-09-09T21:15:50.866Z,22.10
2023-09-09T21:18:18.390Z,22.10
2023-09-09T21:20:45.559Z,22.10
2023-09-09T21:23:12.658Z,22.10
2023-09-09T21:25:41.224Z,22.10
2023-09-09T21:28:08.255Z,22.10
2023-09-09T21:30:35.101Z,22.10
2023-09-09T21:33:01.950Z,22.10
2023-09-09T21:35:28.735Z,22.10
2023-09-09T21:37:55.449Z,22.10
2023-09-09T21:40:22.152Z,22.10
2023-09-09T21:42:48.872Z,22.10
2023-09-09T21:45:15.622Z,22.10
2023-09-09T21:47:42.330Z,22.10
2023-09-09T21:50:09.462Z,22.10
2023-09-09T21:52:36.249Z,22.10
2023-09-09T21:55:02.975Z,22.10
2023-09-09T21:57:29.603Z,22.10
2023-09-09T21:59:56.956Z,22.10
2023-09-09T22:02:23.665Z,22.10
2023-09-09T22:04:50.577Z,22.10
2023-09-09T22:07:18.806Z,22.10
2023-09-09T22:09:45.519Z,22.10
2023-09-09T22:12:12.461Z,22.10
2023-09-09T22:14:39.146Z,22.10
2023-09-09T22:17:06.092Z,22.10
2023-09-09T22:19:32.853Z,22.10
2023-09-09T22:21:59.495Z,22.10
2023-09-09T22:24:26.178Z,22.10
2023-09-09T22:26:57.048Z,22.10
2023-09-09T22:29:23.754Z,22.10
2023-09-09T22:31:50.494Z,22.10
2023-09-09T22:34:17.211Z,22.10
2023-09-09T22:36:43.902Z,22.10
2023-09-09T22:39:10.758Z,22.10
2023-09-09T22:41:37.396Z,22.10
2023-09-09T22:44:04.307Z,22.10
2023-09-09T22:46:31.113Z,22.10
2023-09-09T22:48:57.847Z,22.10
2023-09-09T22:51:25.939Z,22.10
2023-09-09T22:53:53.421Z,22.10
2023-09-09T22:56:20.247Z,22.10
2023-09-09T22:58:47.305Z,22.10
2023-09-09T23:01:17.712Z,22.10
2023-09-09T23:03:44.871Z,22.10
2023-09-09T23:06:11.713Z,22.10
2023-09-09T23:08:38.560Z,22.10
2023-09-09T23:11:15.154Z,22.10
2023-09-09T23:13:42.623Z,22.10
2023-09-09T23:16:09.442Z,22.10
2023-09-09T23:18:37.449Z,22.10
2023-09-09T23:21:04.618Z,22.10
2023-09-09T23:23:31.316Z,22.10
2023-09-09T23:25:59.821Z,22.10
2023-09-09T23:28:26.835Z,22.10
2023-09-09T23:31:05.081Z,22.10
2023-09-09T23:33:32.558Z,22.10
2023-09-09T23:36:01.441Z,22.10
2023-09-09T23:38:28.104Z,22.10
2023-09-09T23:40:54.798Z,22.10
2023-09-09T23:43:22.257Z,22.10
2023-09-09T23:45:48.911Z,22.10
2023-09-09T23:48:15.733Z,22.10
2023-09-09T23:50:42.461Z,22.10
2023-09-09T23:53:09.125Z,22.10
2023-09-09T23:55:35.818Z,22.10
2023-09-09T23:58:02.464Z,22.10
